• Join FlightAware (Why Join?)
  • Login
  • US Flag 
07:30AM EST


 

Airport Tracker/Info


-or-


 

Live Flight TrackerFlight Track Log ✈ USC110 ✈ 18-Jun-2013 ✈ KCLT - KLCK

Flight Track Log - Related Links

Times and Time Zones

All times are in EDT time to prevent confusion due to time zone crossing. See the USC110 flight status page for this flight to view local times or setup timezone preferences in your user account.

Time Position Orientation Groundspeed Altitude Reporting Facility
EDT Latitude Longitude Course Direction KTS MPH feet Rate Location/Type
12:25AM 35.2100 -80.9528 78° East 77 89 1,400  Level Atlanta Center
12:26AM 35.2156 -80.9194 78° East 126 145 2,300 1,020 Climbing Atlanta Center
12:27AM 35.2167 -80.8814 88° East 143 165 3,300 1,140 Climbing Atlanta Center
12:28AM 35.2194 -80.8356 86° East 137 158 4,500 1,140 Climbing Atlanta Center
12:29AM 35.2506 -80.8242 17° North 123 142 5,600 1,140 Climbing Atlanta Center
12:30AM 35.2844 -80.8406 338° Northwest 125 144 6,800 1,080 Climbing Atlanta Center
12:31AM 35.3181 -80.8519 345° North 123 142 8,000 540 Climbing Atlanta Center
12:32AM 35.3558 -80.8658 343° North 137 158 8,000  Level Atlanta Center
12:33AM 35.4003 -80.8894 337° Northwest 156 180 8,000  Level Atlanta Center
12:34AM 35.4447 -80.9083 341° North 156 180 8,000  Level Atlanta Center
12:35AM 35.4869 -80.9244 343° North 156 180 8,000  Level Atlanta Center
12:36AM 35.5311 -80.9433 341° North 161 185 8,000  Level Atlanta Center
12:37AM 35.5753 -80.9619 341° North 161 185 8,000  Level Atlanta Center
12:38AM 35.6175 -80.9833 338° Northwest 166 191 8,000  Level Atlanta Center
12:39AM 35.6619 -81.0022 341° North 166 191 8,000  Level Atlanta Center
12:40AM 35.7061 -81.0236 339° North 166 191 8,000 -60 Level Atlanta Center
12:41AM 35.7567 -81.0422 343° North 171 197 7,900 -60 Descending Atlanta Center
12:42AM 35.8011 -81.0636 339° North 171 197 7,900  Level Atlanta Center
12:43AM 35.8453 -81.0825 341° North 171 197 7,900  Level Atlanta Center
12:44AM 35.8875 -81.1014 340° North 171 197 7,900  Level Atlanta Center
12:45AM 35.9339 -81.1203 342° North 171 197 7,900  Level Atlanta Center
12:46AM 35.9761 -81.1419 337° Northwest 171 197 7,900  Level Atlanta Center
12:47AM 36.0183 -81.1608 340° North 171 197 8,000  Climbing Atlanta Center
12:48AM 36.0625 -81.1797 341° North 171 197 8,000  Level Atlanta Center
12:49AM 36.1067 -81.1989 341° North 171 197 8,000  Level Atlanta Center
12:50AM 36.1508 -81.2153 343° North 171 197 8,000  Level Atlanta Center
12:51AM 36.1953 -81.2344 341° North 171 197 8,000  Level Atlanta Center
12:52AM 36.2417 -81.2558 340° North 171 197 8,000  Level Atlanta Center
12:53AM 36.2794 -81.2753 337° Northwest 171 197 8,000  Level Atlanta Center
12:54AM 36.3278 -81.2942 343° North 171 197 8,000  Level Atlanta Center
12:55AM 36.3722 -81.3133 341° North 171 197 8,000  Level Atlanta Center
12:56AM 36.4142 -81.3325 340° North 171 197 8,000  Level Atlanta Center
12:57AM 36.4628 -81.3542 340° North 171 197 8,000  Level Atlanta Center
12:58AM 36.5069 -81.3706 343° North 171 197 8,000  Level Atlanta Center
12:59AM 36.5511 -81.3950 336° Northwest 171 197 8,000  Level Atlanta Center
01:00AM 36.5997 -81.4192 338° Northwest 171 197 8,000 -60 Level Atlanta Center
01:01AM 36.6458 -81.4358 344° North 171 197 7,900 -60 Descending Atlanta Center
01:02AM 36.6922 -81.4550 342° North 171 197 7,900  Level Atlanta Center
01:03AM 36.7364 -81.4794 336° Northwest 171 197 7,900  Level Atlanta Center
01:05AM 36.8069 -81.5108 340° North 172 198 8,000  Climbing Indianapolis Center
01:06AM 36.8547 -81.5308 341° North 173 199 7,900 -60 Descending Indianapolis Center
01:07AM 36.9008 -81.5522 340° North 175 201 7,900  Level Indianapolis Center
01:08AM 36.9458 -81.5733 339° North 174 200 7,900  Level Indianapolis Center
01:09AM 36.9911 -81.5900 344° North 172 198 7,900  Level Indianapolis Center
01:10AM 37.0397 -81.5883 North 170 196 8,000  Climbing Indianapolis Center
01:11AM 37.0881 -81.5906 358° North 171 197 8,000  Level Indianapolis Center
01:12AM 37.1344 -81.5886 North 168 193 8,000  Level Indianapolis Center
01:13AM 37.1825 -81.5858 North 170 196 8,000  Level Indianapolis Center
01:14AM 37.2389 -81.5867 359° North 172 198 8,000  Level Indianapolis Center
01:15AM 37.2861 -81.5806 North 172 198 8,000  Level Indianapolis Center
01:16AM 37.3344 -81.5781 North 173 199 8,000  Level Indianapolis Center
01:17AM 37.3814 -81.5769 North 170 196 8,000  Level Indianapolis Center
01:18AM 37.4308 -81.5736 North 175 201 8,000  Level Indianapolis Center
01:19AM 37.4786 -81.5747 359° North 172 198 8,000  Level Indianapolis Center
01:20AM 37.5264 -81.5708 North 171 197 8,000  Level Indianapolis Center
01:21AM 37.5744 -81.5672 North 171 197 8,000  Level Indianapolis Center
01:22AM 37.6231 -81.5653 North 174 200 8,000  Level Indianapolis Center
01:23AM 37.6708 -81.5633 North 171 197 8,000  Level Indianapolis Center
01:24AM 37.7183 -81.5625 North 171 197 8,000  Level Indianapolis Center
01:25AM 37.7664 -81.5631 359° North 171 197 8,000  Level Indianapolis Center
01:26AM 37.8136 -81.5636 359° North 171 197 8,000 -60 Level Indianapolis Center
01:27AM 37.8639 -81.5625 North 171 197 7,900 -60 Descending Indianapolis Center
01:28AM 37.9117 -81.5631 359° North 171 197 7,900  Level Indianapolis Center
01:29AM 37.9600 -81.5597 North 175 201 7,900  Level Indianapolis Center
01:30AM 38.0078 -81.5608 359° North 170 196 7,900  Level Indianapolis Center
01:31AM 38.0550 -81.5619 359° North 171 197 7,900  Level Indianapolis Center
01:32AM 38.1053 -81.5611 North 178 205 7,900  Level Indianapolis Center
01:33AM 38.1533 -81.5617 359° North 174 200 7,900  Level Indianapolis Center
01:34AM 38.2014 -81.5608 North 171 197 7,900  Level Indianapolis Center
01:35AM 38.2492 -81.5594 North 171 197 7,900  Level Indianapolis Center
01:36AM 38.2972 -81.5600 359° North 172 198 7,900  Level Indianapolis Center
01:37AM 38.3453 -81.5600 360° North 174 200 7,900  Level Indianapolis Center
01:38AM 38.3908 -81.5744 346° North 175 201 7,900  Level Indianapolis Center
01:39AM 38.4217 -81.6164 313° West 165 190 7,900  Level Indianapolis Center
01:40AM 38.4600 -81.6500 326° Northwest 164 189 7,900  Level Indianapolis Center
01:41AM 38.4964 -81.6847 323° Northwest 164 189 7,900  Level Indianapolis Center
01:42AM 38.5344 -81.7183 325° Northwest 164 189 7,900  Level Indianapolis Center
01:43AM 38.5714 -81.7528 324° Northwest 163 188 8,000  Climbing Indianapolis Center
01:44AM 38.6078 -81.7881 323° Northwest 162 186 7,900 -60 Descending Indianapolis Center
01:45AM 38.6450 -81.8214 325° Northwest 162 186 7,900  Level Indianapolis Center
01:46AM 38.6828 -81.8533 327° Northwest 161 185 7,900  Level Indianapolis Center
01:47AM 38.7233 -81.8797 333° Northwest 162 186 7,900  Level Indianapolis Center
01:48AM 38.7633 -81.9075 332° Northwest 162 186 7,900  Level Indianapolis Center
01:49AM 38.8047 -81.9339 334° Northwest 165 190 7,900  Level Indianapolis Center
01:50AM 38.8464 -81.9622 332° Northwest 168 193 7,900  Level Indianapolis Center
01:51AM 38.8881 -81.9900 333° Northwest 168 193 7,900  Level Indianapolis Center
01:52AM 38.9286 -82.0178 332° Northwest 167 192 8,000  Climbing Indianapolis Center
01:53AM 38.9717 -82.0408 337° Northwest 167 192 8,000 -60 Level Indianapolis Center
01:54AM 39.0144 -82.0681 334° Northwest 169 194 7,900  Descending Indianapolis Center
01:55AM 39.0561 -82.0936 335° Northwest 167 192 8,000  Climbing Indianapolis Center
01:56AM 39.0981 -82.1183 335° Northwest 166 191 7,900 -60 Descending Indianapolis Center
01:57AM 39.1411 -82.1439 335° Northwest 168 193 7,900  Level Indianapolis Center
01:58AM 39.1822 -82.1706 333° Northwest 166 191 7,900  Level Indianapolis Center
01:59AM 39.2142 -82.2122 315° West 164 189 8,000  Climbing Indianapolis Center
02:00AM 39.2458 -82.2514 316° Northwest 160 184 8,000  Level Indianapolis Center
02:01AM 39.2803 -82.2900 319° Northwest 162 186 8,000  Level Indianapolis Center
02:02AM 39.3086 -82.3228 318° Northwest 165 190 8,000  Level Indianapolis Center
02:02AM 39.3242 -82.3406 319° Northwest 164 189 8,000  Level Indianapolis Center
02:03AM 39.3464 -82.3706 314° West 162 186 8,000  Level Indianapolis Center
02:04AM 39.3794 -82.4092 318° Northwest 161 185 8,000  Level Indianapolis Center
02:05AM 39.4125 -82.4481 318° Northwest 160 184 8,000  Level Indianapolis Center
02:06AM 39.4453 -82.4856 319° Northwest 160 184 8,000  Level Indianapolis Center
02:07AM 39.4781 -82.5256 317° Northwest 160 184 8,000 -420 Level Indianapolis Center
02:08AM 39.5125 -82.5689 316° Northwest 168 193 7,200 -900 Descending Indianapolis Center
02:09AM 39.5528 -82.6139 319° Northwest 184 212 6,300 -780 Descending Indianapolis Center
02:10AM 39.5906 -82.6592 317° Northwest 184 212 5,700 -600 Descending Indianapolis Center
02:11AM 39.6278 -82.7028 318° Northwest 181 208 5,100 -720 Descending Indianapolis Center
02:12AM 39.6650 -82.7467 318° Northwest 180 207 4,300 -660 Descending Indianapolis Center
02:13AM 39.7006 -82.7922 315° West 179 206 3,800 -540 Descending Indianapolis Center
02:14AM 39.7292 -82.8436 306° West 176 203 3,300 -660 Descending Indianapolis Center
02:15AM 39.7567 -82.8972 304° West 176 203 2,500 -900 Descending Indianapolis Center
02:16AM 39.7853 -82.9483 306° West 175 201 1,600 -720 Descending Indianapolis Center
02:17AM 39.8189 -82.9394 11° North 167 192 1,100 -540 Descending Indianapolis Center
02:19AM 39.8138 -82.9278 142° Southeast  Level Estimated